PWSweather.com
Personal Weather Stations
Station Observations
THRCKWTHR1
Aveley, EssexGB RM154EL

AveleyEssexGB RM154EL

Lat: 51.5000552, Lon: 0.2501753000000235

Elevation: 98.5

Station Type: Oregon Scientific WMR88

www.facebook.com/thurrockweather

High Low Average
Temperature 56.7°F13.7°C 43.2°F6.2°C 49.2°F9.6°C
Dew Point 50.7°F10.4°C 41.3°F5.2°C 45.9°F7.7°C
Winds 7.4 mph 11.9 kmh Calm Calm 2.0 mph SE3.2 kmh SE
Wind Gusts 9.8 mph15.8 kmh -- 4.0 mph6.4 kmh
Humidity 94% 77% 88%
Pressure 30.01 in1016.3 mb 29.74 in1007.1 mb -
Precipitation 0.00 in0.0 mm - -
Hour Temp Dew Point Humidity Winds Wind Gusts Pressure Precip Precip Rate Daily Precip Total
12:00 AM 44.8°F7.1°C 41.4°F5.2°C 88% Calm Calm 4.4 mph7.1 kmh 30.01 in1016.3 mb 0.00 in0.0 mm 0.00 in0.0 mm 0.00 in0.0 mm
12:05 AM 44.8°F7.1°C 41.4°F5.2°C 88% Calm Calm -- 30.01 in1016.3 mb 0.00 in0.0 mm 0.00 in0.0 mm 0.00 in0.0 mm
12:10 AM 44.8°F7.1°C 41.7°F5.4°C 89% Calm Calm -- 30.01 in1016.3 mb 0.00 in0.0 mm 0.00 in0.0 mm 0.00 in0.0 mm
12:15 AM 44.8°F7.1°C 41.7°F5.4°C 89% 3.5 mph ESE5.6 kmh ESE 3.5 mph5.6 kmh 30.01 in1016.3 mb 0.00 in0.0 mm 0.00 in0.0 mm 0.00 in0.0 mm
12:20 AM 44.8°F7.1°C 41.7°F5.4°C 89% Calm Calm 5.5 mph8.9 kmh 30.01 in1016.3 mb 0.00 in0.0 mm 0.00 in0.0 mm 0.00 in0.0 mm
12:25 AM 45.1°F7.3°C 42.1°F5.6°C 89% Calm Calm 5.5 mph8.9 kmh 30.01 in1016.3 mb 0.00 in0.0 mm 0.00 in0.0 mm 0.00 in0.0 mm
12:30 AM 45.3°F7.4°C 42.0°F5.6°C 88% Calm Calm 3.5 mph5.6 kmh 30.01 in1016.3 mb 0.00 in0.0 mm 0.00 in0.0 mm 0.00 in0.0 mm
12:35 AM 45.3°F7.4°C 42.0°F5.6°C 88% Calm Calm 3.0 mph4.8 kmh 30.01 in1016.3 mb 0.00 in0.0 mm 0.00 in0.0 mm 0.00 in0.0 mm
12:40 AM 45.5°F7.5°C 42.2°F5.7°C 88% 1.9 mph SE3.1 kmh SE 4.4 mph7.1 kmh 30.01 in1016.3 mb 0.00 in0.0 mm 0.00 in0.0 mm 0.00 in0.0 mm
12:45 AM 45.5°F7.5°C 42.2°F5.7°C 88% Calm Calm 4.4 mph7.1 kmh 30.01 in1016.3 mb 0.00 in0.0 mm 0.00 in0.0 mm 0.00 in0.0 mm
12:50 AM 45.5°F7.5°C 42.2°F5.7°C 88% 3.8 mph SE6.1 kmh SE 3.8 mph6.1 kmh 30.01 in1016.3 mb 0.00 in0.0 mm 0.00 in0.0 mm 0.00 in0.0 mm
12:55 AM 45.5°F7.5°C 42.2°F5.7°C 88% 1.1 mph SE1.8 kmh SE 3.8 mph6.1 kmh 30.01 in1016.3 mb 0.00 in0.0 mm 0.00 in0.0 mm 0.00 in0.0 mm
01:00 AM 45.5°F7.5°C 42.2°F5.7°C 88% Calm Calm 3.5 mph5.6 kmh 30.01 in1016.3 mb 0.00 in0.0 mm 0.00 in0.0 mm 0.00 in0.0 mm
01:05 AM 45.3°F7.4°C 42.0°F5.6°C 88% 3.0 mph SE4.8 kmh SE 3.5 mph5.6 kmh 30.01 in1016.3 mb 0.00 in0.0 mm 0.00 in0.0 mm 0.00 in0.0 mm
01:10 AM 45.3°F7.4°C 42.0°F5.6°C 88% 3.8 mph ESE6.1 kmh ESE 5.2 mph8.4 kmh 30.01 in1016.3 mb 0.00 in0.0 mm 0.00 in0.0 mm 0.00 in0.0 mm
01:15 AM 45.3°F7.4°C 42.3°F5.7°C 89% Calm Calm 5.2 mph8.4 kmh 30.01 in1016.3 mb 0.00 in0.0 mm 0.00 in0.0 mm 0.00 in0.0 mm
01:20 AM 45.3°F7.4°C 42.3°F5.7°C 89% 1.4 mph SE2.3 kmh SE 4.4 mph7.1 kmh 30.01 in1016.3 mb 0.00 in0.0 mm 0.00 in0.0 mm 0.00 in0.0 mm
01:25 AM 45.3°F7.4°C 42.0°F5.6°C 88% 4.4 mph SE7.1 kmh SE 4.4 mph7.1 kmh 30.01 in1016.3 mb 0.00 in0.0 mm 0.00 in0.0 mm 0.00 in0.0 mm
01:30 AM 45.3°F7.4°C 42.0°F5.6°C 88% Calm Calm 4.4 mph7.1 kmh 29.98 in1015.2 mb 0.00 in0.0 mm 0.00 in0.0 mm 0.00 in0.0 mm
01:35 AM 45.3°F7.4°C 42.0°F5.6°C 88% Calm Calm 4.1 mph6.6 kmh 29.98 in1015.2 mb 0.00 in0.0 mm 0.00 in0.0 mm 0.00 in0.0 mm
01:40 AM 45.1°F7.3°C 42.1°F5.6°C 89% 1.9 mph SE3.1 kmh SE 6.0 mph9.7 kmh 29.98 in1015.2 mb 0.00 in0.0 mm 0.00 in0.0 mm 0.00 in0.0 mm
01:45 AM 45.1°F7.3°C 42.1°F5.6°C 89% Calm Calm 6.0 mph9.7 kmh 29.98 in1015.2 mb 0.00 in0.0 mm 0.00 in0.0 mm 0.00 in0.0 mm
01:50 AM 45.1°F7.3°C 42.1°F5.6°C 89% Calm Calm 3.0 mph4.8 kmh 29.98 in1015.2 mb 0.00 in0.0 mm 0.00 in0.0 mm 0.00 in0.0 mm
01:55 AM 45.1°F7.3°C 42.1°F5.6°C 89% 3.3 mph SE5.3 kmh SE 4.1 mph6.6 kmh 29.98 in1015.2 mb 0.00 in0.0 mm 0.00 in0.0 mm 0.00 in0.0 mm
02:00 AM 45.0°F7.2°C 42.2°F5.7°C 90% 1.4 mph SE2.3 kmh SE 4.6 mph7.4 kmh 29.98 in1015.2 mb 0.00 in0.0 mm 0.00 in0.0 mm 0.00 in0.0 mm
02:05 AM 44.8°F7.1°C 42.0°F5.6°C 90% 1.4 mph SE2.3 kmh SE 4.6 mph7.4 kmh 29.98 in1015.2 mb 0.00 in0.0 mm 0.00 in0.0 mm 0.00 in0.0 mm
02:10 AM 44.6°F7.0°C 41.8°F5.4°C 90% Calm Calm 3.8 mph6.1 kmh 29.98 in1015.2 mb 0.00 in0.0 mm 0.00 in0.0 mm 0.00 in0.0 mm
02:15 AM 44.4°F6.9°C 42.0°F5.6°C 91% 3.8 mph ESE6.1 kmh ESE 4.1 mph6.6 kmh 29.98 in1015.2 mb 0.00 in0.0 mm 0.00 in0.0 mm 0.00 in0.0 mm
02:20 AM 44.4°F6.9°C 42.0°F5.6°C 91% 1.9 mph E3.1 kmh E 4.1 mph6.6 kmh 29.98 in1015.2 mb 0.00 in0.0 mm 0.00 in0.0 mm 0.00 in0.0 mm
02:25 AM 44.4°F6.9°C 42.0°F5.6°C 91% 1.9 mph ESE3.1 kmh ESE 4.4 mph7.1 kmh 29.98 in1015.2 mb 0.00 in0.0 mm 0.00 in0.0 mm 0.00 in0.0 mm
02:30 AM 44.4°F6.9°C 42.0°F5.6°C 91% 4.6 mph SE7.4 kmh SE 4.6 mph7.4 kmh 29.95 in1014.2 mb 0.00 in0.0 mm 0.00 in0.0 mm 0.00 in0.0 mm
02:35 AM 44.2°F6.8°C 41.8°F5.4°C 91% 1.4 mph SE2.3 kmh SE 5.7 mph9.2 kmh 29.95 in1014.2 mb 0.00 in0.0 mm 0.00 in0.0 mm 0.00 in0.0 mm
02:40 AM 44.4°F6.9°C 42.0°F5.6°C 91% Calm Calm 7.6 mph12.2 kmh 29.95 in1014.2 mb 0.00 in0.0 mm 0.00 in0.0 mm 0.00 in0.0 mm
02:45 AM 44.4°F6.9°C 42.0°F5.6°C 91% 1.6 mph SE2.6 kmh SE 7.6 mph12.2 kmh 29.95 in1014.2 mb 0.00 in0.0 mm 0.00 in0.0 mm 0.00 in0.0 mm
02:50 AM 44.2°F6.8°C 41.8°F5.4°C 91% 1.6 mph SE2.6 kmh SE 5.2 mph8.4 kmh 29.95 in1014.2 mb 0.00 in0.0 mm 0.00 in0.0 mm 0.00 in0.0 mm
02:55 AM 44.1°F6.7°C 41.9°F5.5°C 92% Calm Calm 3.5 mph5.6 kmh 29.95 in1014.2 mb 0.00 in0.0 mm 0.00 in0.0 mm 0.00 in0.0 mm
03:00 AM 44.1°F6.7°C 41.9°F5.5°C 92% 2.5 mph SSE4.0 kmh SSE 2.7 mph4.3 kmh 29.95 in1014.2 mb 0.00 in0.0 mm 0.00 in0.0 mm 0.00 in0.0 mm
03:05 AM 43.7°F6.5°C 41.5°F5.3°C 92% Calm Calm 2.7 mph4.3 kmh 29.95 in1014.2 mb 0.00 in0.0 mm 0.00 in0.0 mm 0.00 in0.0 mm
03:10 AM 43.7°F6.5°C 41.5°F5.3°C 92% Calm Calm 1.1 mph1.8 kmh 29.95 in1014.2 mb 0.00 in0.0 mm 0.00 in0.0 mm 0.00 in0.0 mm
03:15 AM 43.7°F6.5°C 41.5°F5.3°C 92% 3.5 mph SE5.6 kmh SE 4.1 mph6.6 kmh 29.95 in1014.2 mb 0.00 in0.0 mm 0.00 in0.0 mm 0.00 in0.0 mm
03:20 AM 43.7°F6.5°C 41.5°F5.3°C 92% Calm Calm 4.1 mph6.6 kmh 29.95 in1014.2 mb 0.00 in0.0 mm 0.00 in0.0 mm 0.00 in0.0 mm
03:25 AM 43.9°F6.6°C 42.0°F5.6°C 93% Calm Calm 2.7 mph4.3 kmh 29.95 in1014.2 mb 0.00 in0.0 mm 0.00 in0.0 mm 0.00 in0.0 mm
03:30 AM 43.7°F6.5°C 41.8°F5.4°C 93% Calm Calm -- 29.95 in1014.2 mb 0.00 in0.0 mm 0.00 in0.0 mm 0.00 in0.0 mm
03:35 AM 43.5°F6.4°C 41.6°F5.3°C 93% Calm Calm -- 29.95 in1014.2 mb 0.00 in0.0 mm 0.00 in0.0 mm 0.00 in0.0 mm
03:40 AM 43.3°F6.3°C 41.5°F5.3°C 93% Calm Calm -- 29.95 in1014.2 mb 0.00 in0.0 mm 0.00 in0.0 mm 0.00 in0.0 mm
03:45 AM 43.2°F6.2°C 41.3°F5.2°C 93% Calm Calm -- 29.92 in1013.2 mb 0.00 in0.0 mm 0.00 in0.0 mm 0.00 in0.0 mm
03:50 AM 43.2°F6.2°C 41.3°F5.2°C 93% Calm Calm -- 29.92 in1013.2 mb 0.00 in0.0 mm 0.00 in0.0 mm 0.00 in0.0 mm
03:55 AM 43.2°F6.2°C 41.3°F5.2°C 93% Calm Calm 1.1 mph1.8 kmh 29.92 in1013.2 mb 0.00 in0.0 mm 0.00 in0.0 mm 0.00 in0.0 mm
04:00 AM 43.2°F6.2°C 41.3°F5.2°C 93% Calm Calm 1.1 mph1.8 kmh 29.92 in1013.2 mb 0.00 in0.0 mm 0.00 in0.0 mm 0.00 in0.0 mm
04:05 AM 43.3°F6.3°C 41.5°F5.3°C 93% Calm Calm 2.7 mph4.3 kmh 29.92 in1013.2 mb 0.00 in0.0 mm 0.00 in0.0 mm 0.00 in0.0 mm
04:10 AM 43.3°F6.3°C 41.7°F5.4°C 94% 5.2 mph SW8.4 kmh SW 5.2 mph8.4 kmh 29.92 in1013.2 mb 0.00 in0.0 mm 0.00 in0.0 mm 0.00 in0.0 mm
04:15 AM 43.7°F6.5°C 42.1°F5.6°C 94% Calm Calm 5.2 mph8.4 kmh 29.92 in1013.2 mb 0.00 in0.0 mm 0.00 in0.0 mm 0.00 in0.0 mm
04:20 AM 43.7°F6.5°C 42.1°F5.6°C 94% Calm Calm 5.2 mph8.4 kmh 29.92 in1013.2 mb 0.00 in0.0 mm 0.00 in0.0 mm 0.00 in0.0 mm
04:25 AM 44.1°F6.7°C 42.4°F5.8°C 94% Calm Calm 5.7 mph9.2 kmh 29.92 in1013.2 mb 0.00 in0.0 mm 0.00 in0.0 mm 0.00 in0.0 mm
04:30 AM 44.1°F6.7°C 42.4°F5.8°C 94% Calm Calm 5.7 mph9.2 kmh 29.92 in1013.2 mb 0.00 in0.0 mm 0.00 in0.0 mm 0.00 in0.0 mm
04:35 AM 44.2°F6.8°C 42.6°F5.9°C 94% 1.6 mph ESE2.6 kmh ESE 4.6 mph7.4 kmh 29.92 in1013.2 mb 0.00 in0.0 mm 0.00 in0.0 mm 0.00 in0.0 mm
04:40 AM 44.4°F6.9°C 42.8°F6.0°C 94% 1.6 mph SE2.6 kmh SE 3.5 mph5.6 kmh 29.92 in1013.2 mb 0.00 in0.0 mm 0.00 in0.0 mm 0.00 in0.0 mm
04:45 AM 44.4°F6.9°C 42.8°F6.0°C 94% 1.6 mph SE2.6 kmh SE 3.5 mph5.6 kmh 29.92 in1013.2 mb 0.00 in0.0 mm 0.00 in0.0 mm 0.00 in0.0 mm
04:50 AM 44.6°F7.0°C 42.7°F5.9°C 93% Calm Calm 3.0 mph4.8 kmh 29.92 in1013.2 mb 0.00 in0.0 mm 0.00 in0.0 mm 0.00 in0.0 mm
04:55 AM 44.6°F7.0°C 42.7°F5.9°C 93% Calm Calm 1.9 mph3.1 kmh 29.92 in1013.2 mb 0.00 in0.0 mm 0.00 in0.0 mm 0.00 in0.0 mm
05:00 AM 44.8°F7.1°C 42.9°F6.1°C 93% 4.4 mph SE7.1 kmh SE 4.9 mph7.9 kmh 29.92 in1013.2 mb 0.00 in0.0 mm 0.00 in0.0 mm 0.00 in0.0 mm
05:05 AM 44.8°F7.1°C 42.9°F6.1°C 93% Calm Calm 4.9 mph7.9 kmh 29.92 in1013.2 mb 0.00 in0.0 mm 0.00 in0.0 mm 0.00 in0.0 mm
05:10 AM 45.0°F7.2°C 43.1°F6.2°C 93% 4.1 mph SE6.6 kmh SE 4.4 mph7.1 kmh 29.92 in1013.2 mb 0.00 in0.0 mm 0.00 in0.0 mm 0.00 in0.0 mm
05:15 AM 45.0°F7.2°C 43.1°F6.2°C 93% 3.0 mph SE4.8 kmh SE 4.4 mph7.1 kmh 29.92 in1013.2 mb 0.00 in0.0 mm 0.00 in0.0 mm 0.00 in0.0 mm
05:20 AM 45.1°F7.3°C 43.2°F6.2°C 93% 4.1 mph ESE6.6 kmh ESE 4.4 mph7.1 kmh 29.92 in1013.2 mb 0.00 in0.0 mm 0.00 in0.0 mm 0.00 in0.0 mm
05:25 AM 45.1°F7.3°C 43.2°F6.2°C 93% 1.4 mph E2.3 kmh E 4.1 mph6.6 kmh 29.92 in1013.2 mb 0.00 in0.0 mm 0.00 in0.0 mm 0.00 in0.0 mm
05:30 AM 45.5°F7.5°C 43.6°F6.4°C 93% 2.5 mph ESE4.0 kmh ESE 6.0 mph9.7 kmh 29.89 in1012.2 mb 0.00 in0.0 mm 0.00 in0.0 mm 0.00 in0.0 mm
05:35 AM 45.5°F7.5°C 43.6°F6.4°C 93% 3.5 mph SE5.6 kmh SE 6.0 mph9.7 kmh 29.89 in1012.2 mb 0.00 in0.0 mm 0.00 in0.0 mm 0.00 in0.0 mm
05:40 AM 45.9°F7.7°C 44.0°F6.7°C 93% 3.5 mph SE5.6 kmh SE 4.6 mph7.4 kmh 29.89 in1012.2 mb 0.00 in0.0 mm 0.00 in0.0 mm 0.00 in0.0 mm
05:45 AM 45.9°F7.7°C 44.0°F6.7°C 93% 3.3 mph SE5.3 kmh SE 4.6 mph7.4 kmh 29.92 in1013.2 mb 0.00 in0.0 mm 0.00 in0.0 mm 0.00 in0.0 mm
05:50 AM 45.9°F7.7°C 43.7°F6.5°C 92% 1.4 mph SE2.3 kmh SE 3.5 mph5.6 kmh 29.92 in1013.2 mb 0.00 in0.0 mm 0.00 in0.0 mm 0.00 in0.0 mm
05:55 AM 45.9°F7.7°C 44.0°F6.7°C 93% Calm Calm 4.1 mph6.6 kmh 29.92 in1013.2 mb 0.00 in0.0 mm 0.00 in0.0 mm 0.00 in0.0 mm
06:00 AM 45.7°F7.6°C 43.8°F6.6°C 93% Calm Calm 4.1 mph6.6 kmh 29.92 in1013.2 mb 0.00 in0.0 mm 0.00 in0.0 mm 0.00 in0.0 mm
06:05 AM 45.5°F7.5°C 43.6°F6.4°C 93% Calm Calm 1.4 mph2.3 kmh 29.92 in1013.2 mb 0.00 in0.0 mm 0.00 in0.0 mm 0.00 in0.0 mm
06:10 AM 45.3°F7.4°C 43.4°F6.3°C 93% 2.5 mph SE4.0 kmh SE 2.5 mph4.0 kmh 29.92 in1013.2 mb 0.00 in0.0 mm 0.00 in0.0 mm 0.00 in0.0 mm
06:15 AM 45.3°F7.4°C 43.4°F6.3°C 93% Calm Calm 3.3 mph5.3 kmh 29.92 in1013.2 mb 0.00 in0.0 mm 0.00 in0.0 mm 0.00 in0.0 mm
06:20 AM 45.3°F7.4°C 43.4°F6.3°C 93% 2.7 mph SE4.3 kmh SE 3.3 mph5.3 kmh 29.92 in1013.2 mb 0.00 in0.0 mm 0.00 in0.0 mm 0.00 in0.0 mm
06:25 AM 45.1°F7.3°C 43.2°F6.2°C 93% 1.1 mph SE1.8 kmh SE 3.3 mph5.3 kmh 29.92 in1013.2 mb 0.00 in0.0 mm 0.00 in0.0 mm 0.00 in0.0 mm
06:30 AM 45.1°F7.3°C 43.2°F6.2°C 93% 3.0 mph SE4.8 kmh SE 3.0 mph4.8 kmh 29.92 in1013.2 mb 0.00 in0.0 mm 0.00 in0.0 mm 0.00 in0.0 mm
06:35 AM 45.0°F7.2°C 43.1°F6.2°C 93% Calm Calm 3.0 mph4.8 kmh 29.92 in1013.2 mb 0.00 in0.0 mm 0.00 in0.0 mm 0.00 in0.0 mm
06:40 AM 44.8°F7.1°C 42.9°F6.1°C 93% 1.6 mph SE2.6 kmh SE 3.3 mph5.3 kmh 29.92 in1013.2 mb 0.00 in0.0 mm 0.00 in0.0 mm 0.00 in0.0 mm
06:45 AM 44.6°F7.0°C 42.7°F5.9°C 93% 2.7 mph SE4.3 kmh SE 3.8 mph6.1 kmh 29.92 in1013.2 mb 0.00 in0.0 mm 0.00 in0.0 mm 0.00 in0.0 mm
06:50 AM 44.6°F7.0°C 42.7°F5.9°C 93% 1.1 mph SE1.8 kmh SE 3.8 mph6.1 kmh 29.92 in1013.2 mb 0.00 in0.0 mm 0.00 in0.0 mm 0.00 in0.0 mm
06:55 AM 44.6°F7.0°C 42.7°F5.9°C 93% 3.5 mph SE5.6 kmh SE 4.1 mph6.6 kmh 29.92 in1013.2 mb 0.00 in0.0 mm 0.00 in0.0 mm 0.00 in0.0 mm
07:00 AM 44.6°F7.0°C 43.0°F6.1°C 94% 3.8 mph SE6.1 kmh SE 4.1 mph6.6 kmh 29.92 in1013.2 mb 0.00 in0.0 mm 0.00 in0.0 mm 0.00 in0.0 mm
07:05 AM 44.6°F7.0°C 42.7°F5.9°C 93% Calm Calm 4.1 mph6.6 kmh 29.92 in1013.2 mb 0.00 in0.0 mm 0.00 in0.0 mm 0.00 in0.0 mm
07:10 AM 44.6°F7.0°C 42.7°F5.9°C 93% 2.7 mph SE4.3 kmh SE 4.9 mph7.9 kmh 29.92 in1013.2 mb 0.00 in0.0 mm 0.00 in0.0 mm 0.00 in0.0 mm
07:15 AM 44.6°F7.0°C 43.0°F6.1°C 94% 3.3 mph SE5.3 kmh SE 4.9 mph7.9 kmh 29.92 in1013.2 mb 0.00 in0.0 mm 0.00 in0.0 mm 0.00 in0.0 mm
07:20 AM 44.6°F7.0°C 42.7°F5.9°C 93% Calm Calm 3.3 mph5.3 kmh 29.92 in1013.2 mb 0.00 in0.0 mm 0.00 in0.0 mm 0.00 in0.0 mm
07:25 AM 44.6°F7.0°C 43.0°F6.1°C 94% 1.9 mph SE3.1 kmh SE 3.3 mph5.3 kmh 29.92 in1013.2 mb 0.00 in0.0 mm 0.00 in0.0 mm 0.00 in0.0 mm
07:30 AM 44.6°F7.0°C 43.0°F6.1°C 94% Calm Calm 2.5 mph4.0 kmh 29.92 in1013.2 mb 0.00 in0.0 mm 0.00 in0.0 mm 0.00 in0.0 mm
07:35 AM 44.8°F7.1°C 43.2°F6.2°C 94% 2.5 mph ESE4.0 kmh ESE 3.0 mph4.8 kmh 29.92 in1013.2 mb 0.00 in0.0 mm 0.00 in0.0 mm 0.00 in0.0 mm
07:40 AM 44.8°F7.1°C 43.2°F6.2°C 94% Calm Calm 3.0 mph4.8 kmh 29.92 in1013.2 mb 0.00 in0.0 mm 0.00 in0.0 mm 0.00 in0.0 mm
07:45 AM 45.0°F7.2°C 43.3°F6.3°C 94% Calm Calm 2.5 mph4.0 kmh 29.92 in1013.2 mb 0.00 in0.0 mm 0.00 in0.0 mm 0.00 in0.0 mm
07:50 AM 45.1°F7.3°C 43.5°F6.4°C 94% Calm Calm -- 29.92 in1013.2 mb 0.00 in0.0 mm 0.00 in0.0 mm 0.00 in0.0 mm
07:55 AM 45.3°F7.4°C 43.7°F6.5°C 94% 4.6 mph SE7.4 kmh SE 4.6 mph7.4 kmh 29.92 in1013.2 mb 0.00 in0.0 mm 0.00 in0.0 mm 0.00 in0.0 mm
08:00 AM 45.5°F7.5°C 43.9°F6.6°C 94% 3.3 mph SE5.3 kmh SE 4.6 mph7.4 kmh 29.92 in1013.2 mb 0.00 in0.0 mm 0.00 in0.0 mm 0.00 in0.0 mm
08:05 AM 45.9°F7.7°C 44.2°F6.8°C 94% 2.5 mph SE4.0 kmh SE 4.4 mph7.1 kmh 29.92 in1013.2 mb 0.00 in0.0 mm 0.00 in0.0 mm 0.00 in0.0 mm
08:10 AM 46.2°F7.9°C 44.6°F7.0°C 94% 4.1 mph SE6.6 kmh SE 4.4 mph7.1 kmh 29.92 in1013.2 mb 0.00 in0.0 mm 0.00 in0.0 mm 0.00 in0.0 mm
08:15 AM 46.6°F8.1°C 44.7°F7.1°C 93% 3.3 mph SE5.3 kmh SE 4.1 mph6.6 kmh 29.92 in1013.2 mb 0.00 in0.0 mm 0.00 in0.0 mm 0.00 in0.0 mm
08:20 AM 46.8°F8.2°C 44.6°F7.0°C 92% 4.4 mph SE7.1 kmh SE 4.4 mph7.1 kmh 29.92 in1013.2 mb 0.00 in0.0 mm 0.00 in0.0 mm 0.00 in0.0 mm
08:25 AM 47.3°F8.5°C 45.1°F7.3°C 92% 3.0 mph SE4.8 kmh SE 4.6 mph7.4 kmh 29.92 in1013.2 mb 0.00 in0.0 mm 0.00 in0.0 mm 0.00 in0.0 mm
08:30 AM 47.8°F8.8°C 45.6°F7.6°C 92% 4.9 mph SE7.9 kmh SE 6.0 mph9.7 kmh 29.92 in1013.2 mb 0.00 in0.0 mm 0.00 in0.0 mm 0.00 in0.0 mm
08:35 AM 48.0°F8.9°C 45.8°F7.7°C 92% 3.8 mph SE6.1 kmh SE 6.0 mph9.7 kmh 29.92 in1013.2 mb 0.00 in0.0 mm 0.00 in0.0 mm 0.00 in0.0 mm
08:40 AM 48.4°F9.1°C 45.6°F7.6°C 90% 1.9 mph SE3.1 kmh SE 4.9 mph7.9 kmh 29.92 in1013.2 mb 0.00 in0.0 mm 0.00 in0.0 mm 0.00 in0.0 mm
08:45 AM 48.6°F9.2°C 46.1°F7.8°C 91% Calm Calm 5.7 mph9.2 kmh 29.92 in1013.2 mb 0.00 in0.0 mm 0.00 in0.0 mm 0.00 in0.0 mm
08:50 AM 48.7°F9.3°C 46.2°F7.9°C 91% Calm Calm 5.7 mph9.2 kmh 29.92 in1013.2 mb 0.00 in0.0 mm 0.00 in0.0 mm 0.00 in0.0 mm
08:55 AM 48.9°F9.4°C 46.1°F7.8°C 90% Calm Calm 1.6 mph2.6 kmh 29.92 in1013.2 mb 0.00 in0.0 mm 0.00 in0.0 mm 0.00 in0.0 mm
09:00 AM 49.1°F9.5°C 46.3°F7.9°C 90% 1.9 mph SE3.1 kmh SE 2.5 mph4.0 kmh 29.92 in1013.2 mb 0.00 in0.0 mm 0.00 in0.0 mm 0.00 in0.0 mm
09:05 AM 49.3°F9.6°C 46.5°F8.1°C 90% 1.6 mph SE2.6 kmh SE 2.5 mph4.0 kmh 29.92 in1013.2 mb 0.00 in0.0 mm 0.00 in0.0 mm 0.00 in0.0 mm
09:10 AM 49.5°F9.7°C 46.6°F8.1°C 90% Calm Calm 4.9 mph7.9 kmh 29.92 in1013.2 mb 0.00 in0.0 mm 0.00 in0.0 mm 0.00 in0.0 mm
09:15 AM 49.5°F9.7°C 46.6°F8.1°C 90% Calm Calm 4.9 mph7.9 kmh 29.92 in1013.2 mb 0.00 in0.0 mm 0.00 in0.0 mm 0.00 in0.0 mm
09:20 AM 49.6°F9.8°C 46.8°F8.2°C 90% Calm Calm 4.1 mph6.6 kmh 29.92 in1013.2 mb 0.00 in0.0 mm 0.00 in0.0 mm 0.00 in0.0 mm
09:25 AM 49.6°F9.8°C 46.8°F8.2°C 90% Calm Calm -- 29.92 in1013.2 mb 0.00 in0.0 mm 0.00 in0.0 mm 0.00 in0.0 mm
09:30 AM 49.8°F9.9°C 47.0°F8.3°C 90% Calm Calm -- 29.92 in1013.2 mb 0.00 in0.0 mm 0.00 in0.0 mm 0.00 in0.0 mm
09:35 AM 50.0°F10.0°C 46.9°F8.3°C 89% Calm Calm -- 29.92 in1013.2 mb 0.00 in0.0 mm 0.00 in0.0 mm 0.00 in0.0 mm
09:40 AM 50.2°F10.1°C 47.1°F8.4°C 89% Calm Calm -- 29.92 in1013.2 mb 0.00 in0.0 mm 0.00 in0.0 mm 0.00 in0.0 mm
09:45 AM 50.4°F10.2°C 47.2°F8.4°C 89% 1.9 mph SE3.1 kmh SE 4.6 mph7.4 kmh 29.92 in1013.2 mb 0.00 in0.0 mm 0.00 in0.0 mm 0.00 in0.0 mm
09:50 AM 50.5°F10.3°C 47.1°F8.4°C 88% Calm Calm 4.6 mph7.4 kmh 29.92 in1013.2 mb 0.00 in0.0 mm 0.00 in0.0 mm 0.00 in0.0 mm
09:55 AM 50.5°F10.3°C 47.1°F8.4°C 88% 5.5 mph S8.9 kmh S 5.5 mph8.9 kmh 29.92 in1013.2 mb 0.00 in0.0 mm 0.00 in0.0 mm 0.00 in0.0 mm
10:00 AM 50.7°F10.4°C 47.3°F8.5°C 88% 1.1 mph S1.8 kmh S 5.5 mph8.9 kmh 29.92 in1013.2 mb 0.00 in0.0 mm 0.00 in0.0 mm 0.00 in0.0 mm
10:05 AM 50.7°F10.4°C 47.3°F8.5°C 88% 4.9 mph SE7.9 kmh SE 4.9 mph7.9 kmh 29.92 in1013.2 mb 0.00 in0.0 mm 0.00 in0.0 mm 0.00 in0.0 mm
10:10 AM 50.7°F10.4°C 47.0°F8.3°C 87% 3.5 mph SE5.6 kmh SE 4.9 mph7.9 kmh 29.92 in1013.2 mb 0.00 in0.0 mm 0.00 in0.0 mm 0.00 in0.0 mm
10:15 AM 51.1°F10.6°C 47.3°F8.5°C 87% 1.1 mph SE1.8 kmh SE 4.9 mph7.9 kmh 29.92 in1013.2 mb 0.00 in0.0 mm 0.00 in0.0 mm 0.00 in0.0 mm
10:20 AM 51.3°F10.7°C 47.2°F8.4°C 86% Calm Calm 4.6 mph7.4 kmh 29.92 in1013.2 mb 0.00 in0.0 mm 0.00 in0.0 mm 0.00 in0.0 mm
10:25 AM 51.4°F10.8°C 48.0°F8.9°C 88% Calm Calm 4.6 mph7.4 kmh 29.92 in1013.2 mb 0.00 in0.0 mm 0.00 in0.0 mm 0.00 in0.0 mm
10:30 AM 51.6°F10.9°C 48.2°F9.0°C 88% Calm Calm 4.6 mph7.4 kmh 29.92 in1013.2 mb 0.00 in0.0 mm 0.00 in0.0 mm 0.00 in0.0 mm
10:35 AM 51.8°F11.0°C 48.1°F8.9°C 87% 1.1 mph SE1.8 kmh SE 4.6 mph7.4 kmh 29.92 in1013.2 mb 0.00 in0.0 mm 0.00 in0.0 mm 0.00 in0.0 mm
10:40 AM 52.2°F11.2°C 48.4°F9.1°C 87% 1.4 mph ESE2.3 kmh ESE 3.5 mph5.6 kmh 29.92 in1013.2 mb 0.00 in0.0 mm 0.00 in0.0 mm 0.00 in0.0 mm
10:45 AM 52.7°F11.5°C 48.9°F9.4°C 87% 1.6 mph SE2.6 kmh SE 3.0 mph4.8 kmh 29.92 in1013.2 mb 0.00 in0.0 mm 0.00 in0.0 mm 0.00 in0.0 mm
10:50 AM 53.1°F11.7°C 49.0°F9.4°C 86% 1.4 mph SE2.3 kmh SE 3.8 mph6.1 kmh 29.92 in1013.2 mb 0.00 in0.0 mm 0.00 in0.0 mm 0.00 in0.0 mm
10:55 AM 53.6°F12.0°C 49.2°F9.6°C 85% 1.4 mph SSE2.3 kmh SSE 3.8 mph6.1 kmh 29.92 in1013.2 mb 0.00 in0.0 mm 0.00 in0.0 mm 0.00 in0.0 mm
11:00 AM 53.8°F12.1°C 49.4°F9.7°C 85% Calm Calm 4.1 mph6.6 kmh 29.89 in1012.2 mb 0.00 in0.0 mm 0.00 in0.0 mm 0.00 in0.0 mm
11:05 AM 54.0°F12.2°C 49.6°F9.8°C 85% 4.9 mph SE7.9 kmh SE 4.9 mph7.9 kmh 29.89 in1012.2 mb 0.00 in0.0 mm 0.00 in0.0 mm 0.00 in0.0 mm
11:10 AM 54.0°F12.2°C 49.6°F9.8°C 85% Calm Calm 4.9 mph7.9 kmh 29.89 in1012.2 mb 0.00 in0.0 mm 0.00 in0.0 mm 0.00 in0.0 mm
11:15 AM 54.1°F12.3°C 49.4°F9.7°C 84% 1.6 mph SE2.6 kmh SE 4.9 mph7.9 kmh 29.89 in1012.2 mb 0.00 in0.0 mm 0.00 in0.0 mm 0.00 in0.0 mm
11:20 AM 54.1°F12.3°C 49.4°F9.7°C 84% 4.4 mph S7.1 kmh S 4.4 mph7.1 kmh 29.89 in1012.2 mb 0.00 in0.0 mm 0.00 in0.0 mm 0.00 in0.0 mm
11:25 AM 54.3°F12.4°C 49.6°F9.8°C 84% 3.0 mph S4.8 kmh S 4.4 mph7.1 kmh 29.89 in1012.2 mb 0.00 in0.0 mm 0.00 in0.0 mm 0.00 in0.0 mm
11:30 AM 54.5°F12.5°C 49.8°F9.9°C 84% Calm Calm 4.4 mph7.1 kmh 29.89 in1012.2 mb 0.00 in0.0 mm 0.00 in0.0 mm 0.00 in0.0 mm
11:35 AM 54.5°F12.5°C 49.4°F9.7°C 83% Calm Calm 3.5 mph5.6 kmh 29.89 in1012.2 mb 0.00 in0.0 mm 0.00 in0.0 mm 0.00 in0.0 mm
11:40 AM 54.7°F12.6°C 49.3°F9.6°C 82% Calm Calm 2.5 mph4.0 kmh 29.89 in1012.2 mb 0.00 in0.0 mm 0.00 in0.0 mm 0.00 in0.0 mm
11:45 AM 54.7°F12.6°C 49.6°F9.8°C 83% 6.5 mph SE10.5 kmh SE 6.5 mph10.5 kmh 29.89 in1012.2 mb 0.00 in0.0 mm 0.00 in0.0 mm 0.00 in0.0 mm
11:50 AM 54.9°F12.7°C 49.8°F9.9°C 83% Calm Calm 6.5 mph10.5 kmh 29.89 in1012.2 mb 0.00 in0.0 mm 0.00 in0.0 mm 0.00 in0.0 mm
11:55 AM 55.0°F12.8°C 50.0°F10.0°C 83% Calm Calm 1.4 mph2.3 kmh 29.89 in1012.2 mb 0.00 in0.0 mm 0.00 in0.0 mm 0.00 in0.0 mm
12:00 PM 55.0°F12.8°C 50.0°F10.0°C 83% Calm Calm 4.1 mph6.6 kmh 29.86 in1011.2 mb 0.00 in0.0 mm 0.00 in0.0 mm 0.00 in0.0 mm
12:05 PM 55.0°F12.8°C 49.6°F9.8°C 82% Calm Calm 4.1 mph6.6 kmh 29.86 in1011.2 mb 0.00 in0.0 mm 0.00 in0.0 mm 0.00 in0.0 mm
12:10 PM 55.2°F12.9°C 49.8°F9.9°C 82% 1.9 mph SSE3.1 kmh SSE 4.4 mph7.1 kmh 29.86 in1011.2 mb 0.00 in0.0 mm 0.00 in0.0 mm 0.00 in0.0 mm
12:15 PM 55.4°F13.0°C 50.3°F10.2°C 83% Calm Calm 4.4 mph7.1 kmh 29.86 in1011.2 mb 0.00 in0.0 mm 0.00 in0.0 mm 0.00 in0.0 mm
12:20 PM 55.4°F13.0°C 50.0°F10.0°C 82% Calm Calm 1.9 mph3.1 kmh 29.86 in1011.2 mb 0.00 in0.0 mm 0.00 in0.0 mm 0.00 in0.0 mm
12:25 PM 55.4°F13.0°C 50.0°F10.0°C 82% Calm Calm 4.9 mph7.9 kmh 29.86 in1011.2 mb 0.00 in0.0 mm 0.00 in0.0 mm 0.00 in0.0 mm
12:30 PM 55.4°F13.0°C 49.7°F9.8°C 81% Calm Calm 4.9 mph7.9 kmh 29.86 in1011.2 mb 0.00 in0.0 mm 0.00 in0.0 mm 0.00 in0.0 mm
12:35 PM 55.4°F13.0°C 50.0°F10.0°C 82% Calm Calm 1.6 mph2.6 kmh 29.86 in1011.2 mb 0.00 in0.0 mm 0.00 in0.0 mm 0.00 in0.0 mm
12:40 PM 55.4°F13.0°C 49.7°F9.8°C 81% Calm Calm 3.3 mph5.3 kmh 29.86 in1011.2 mb 0.00 in0.0 mm 0.00 in0.0 mm 0.00 in0.0 mm
12:45 PM 55.4°F13.0°C 50.0°F10.0°C 82% Calm Calm 3.3 mph5.3 kmh 29.86 in1011.2 mb 0.00 in0.0 mm 0.00 in0.0 mm 0.00 in0.0 mm
12:50 PM 55.6°F13.1°C 50.2°F10.1°C 82% Calm Calm 4.9 mph7.9 kmh 29.86 in1011.2 mb 0.00 in0.0 mm 0.00 in0.0 mm 0.00 in0.0 mm
12:55 PM 55.6°F13.1°C 49.8°F9.9°C 81% 3.3 mph SE5.3 kmh SE 4.9 mph7.9 kmh 29.86 in1011.2 mb 0.00 in0.0 mm 0.00 in0.0 mm 0.00 in0.0 mm
01:00 PM 55.6°F13.1°C 50.2°F10.1°C 82% 3.0 mph SE4.8 kmh SE 4.9 mph7.9 kmh 29.83 in1010.2 mb 0.00 in0.0 mm 0.00 in0.0 mm 0.00 in0.0 mm
01:05 PM 55.6°F13.1°C 49.8°F9.9°C 81% Calm Calm 3.8 mph6.1 kmh 29.83 in1010.2 mb 0.00 in0.0 mm 0.00 in0.0 mm 0.00 in0.0 mm
01:10 PM 55.8°F13.2°C 50.0°F10.0°C 81% 1.9 mph SE3.1 kmh SE 3.8 mph6.1 kmh 29.83 in1010.2 mb 0.00 in0.0 mm 0.00 in0.0 mm 0.00 in0.0 mm
01:15 PM 55.9°F13.3°C 50.2°F10.1°C 81% 1.4 mph SE2.3 kmh SE 2.7 mph4.3 kmh 29.83 in1010.2 mb 0.00 in0.0 mm 0.00 in0.0 mm 0.00 in0.0 mm
01:20 PM 56.1°F13.4°C 50.7°F10.4°C 82% Calm Calm 2.7 mph4.3 kmh 29.83 in1010.2 mb 0.00 in0.0 mm 0.00 in0.0 mm 0.00 in0.0 mm
01:25 PM 56.3°F13.5°C 50.5°F10.3°C 81% Calm Calm -- 29.83 in1010.2 mb 0.00 in0.0 mm 0.00 in0.0 mm 0.00 in0.0 mm
01:30 PM 56.5°F13.6°C 50.4°F10.2°C 80% Calm Calm -- 29.83 in1010.2 mb 0.00 in0.0 mm 0.00 in0.0 mm 0.00 in0.0 mm
01:35 PM 56.5°F13.6°C 50.4°F10.2°C 80% Calm Calm 1.4 mph2.3 kmh 29.83 in1010.2 mb 0.00 in0.0 mm 0.00 in0.0 mm 0.00 in0.0 mm
01:40 PM 56.5°F13.6°C 49.7°F9.8°C 78% Calm Calm 2.5 mph4.0 kmh 29.83 in1010.2 mb 0.00 in0.0 mm 0.00 in0.0 mm 0.00 in0.0 mm
01:45 PM 56.5°F13.6°C 50.0°F10.0°C 79% Calm Calm 3.0 mph4.8 kmh 29.83 in1010.2 mb 0.00 in0.0 mm 0.00 in0.0 mm 0.00 in0.0 mm
01:50 PM 56.3°F13.5°C 49.5°F9.7°C 78% Calm Calm 3.0 mph4.8 kmh 29.83 in1010.2 mb 0.00 in0.0 mm 0.00 in0.0 mm 0.00 in0.0 mm
01:55 PM 56.5°F13.6°C 49.7°F9.8°C 78% Calm Calm -- 29.83 in1010.2 mb 0.00 in0.0 mm 0.00 in0.0 mm 0.00 in0.0 mm
02:00 PM 56.5°F13.6°C 49.4°F9.7°C 77% Calm Calm -- 29.83 in1010.2 mb 0.00 in0.0 mm 0.00 in0.0 mm 0.00 in0.0 mm
02:05 PM 56.5°F13.6°C 49.7°F9.8°C 78% 7.1 mph SE11.4 kmh SE 7.1 mph11.4 kmh 29.83 in1010.2 mb 0.00 in0.0 mm 0.00 in0.0 mm 0.00 in0.0 mm
02:10 PM 56.7°F13.7°C 49.9°F9.9°C 78% Calm Calm 7.1 mph11.4 kmh 29.83 in1010.2 mb 0.00 in0.0 mm 0.00 in0.0 mm 0.00 in0.0 mm
02:15 PM 56.7°F13.7°C 49.9°F9.9°C 78% Calm Calm 3.0 mph4.8 kmh 29.83 in1010.2 mb 0.00 in0.0 mm 0.00 in0.0 mm 0.00 in0.0 mm
02:20 PM 56.5°F13.6°C 49.7°F9.8°C 78% Calm Calm 5.2 mph8.4 kmh 29.83 in1010.2 mb 0.00 in0.0 mm 0.00 in0.0 mm 0.00 in0.0 mm
02:25 PM 56.3°F13.5°C 49.5°F9.7°C 78% Calm Calm 5.2 mph8.4 kmh 29.83 in1010.2 mb 0.00 in0.0 mm 0.00 in0.0 mm 0.00 in0.0 mm
02:30 PM 56.1°F13.4°C 49.4°F9.7°C 78% Calm Calm 3.0 mph4.8 kmh 29.83 in1010.2 mb 0.00 in0.0 mm 0.00 in0.0 mm 0.00 in0.0 mm
02:35 PM 55.9°F13.3°C 49.5°F9.7°C 79% Calm Calm 3.0 mph4.8 kmh 29.83 in1010.2 mb 0.00 in0.0 mm 0.00 in0.0 mm 0.00 in0.0 mm
02:40 PM 55.8°F13.2°C 49.3°F9.6°C 79% 4.1 mph SE6.6 kmh SE 4.1 mph6.6 kmh 29.83 in1010.2 mb 0.00 in0.0 mm 0.00 in0.0 mm 0.00 in0.0 mm
02:45 PM 55.6°F13.1°C 49.2°F9.6°C 79% Calm Calm 4.1 mph6.6 kmh 29.80 in1009.1 mb 0.00 in0.0 mm 0.00 in0.0 mm 0.00 in0.0 mm
02:50 PM 55.4°F13.0°C 49.0°F9.4°C 79% Calm Calm 3.5 mph5.6 kmh 29.80 in1009.1 mb 0.00 in0.0 mm 0.00 in0.0 mm 0.00 in0.0 mm
02:55 PM 55.2°F12.9°C 49.2°F9.6°C 80% Calm Calm -- 29.80 in1009.1 mb 0.00 in0.0 mm 0.00 in0.0 mm 0.00 in0.0 mm
03:00 PM 55.0°F12.8°C 49.3°F9.6°C 81% Calm Calm 4.4 mph7.1 kmh 29.80 in1009.1 mb 0.00 in0.0 mm 0.00 in0.0 mm 0.00 in0.0 mm
03:05 PM 55.0°F12.8°C 49.0°F9.4°C 80% 1.1 mph SE1.8 kmh SE 4.4 mph7.1 kmh 29.80 in1009.1 mb 0.00 in0.0 mm 0.00 in0.0 mm 0.00 in0.0 mm
03:10 PM 54.9°F12.7°C 48.8°F9.3°C 80% 3.5 mph SE5.6 kmh SE 3.8 mph6.1 kmh 29.80 in1009.1 mb 0.00 in0.0 mm 0.00 in0.0 mm 0.00 in0.0 mm
03:15 PM 54.9°F12.7°C 49.1°F9.5°C 81% 4.6 mph SE7.4 kmh SE 4.9 mph7.9 kmh 29.80 in1009.1 mb 0.00 in0.0 mm 0.00 in0.0 mm 0.00 in0.0 mm
03:20 PM 54.7°F12.6°C 48.6°F9.2°C 80% 1.6 mph SE2.6 kmh SE 4.9 mph7.9 kmh 29.80 in1009.1 mb 0.00 in0.0 mm 0.00 in0.0 mm 0.00 in0.0 mm
03:25 PM 54.5°F12.5°C 48.5°F9.2°C 80% Calm Calm 4.6 mph7.4 kmh 29.80 in1009.1 mb 0.00 in0.0 mm 0.00 in0.0 mm 0.00 in0.0 mm
03:30 PM 54.3°F12.4°C 48.3°F9.1°C 80% Calm Calm 5.2 mph8.4 kmh 29.80 in1009.1 mb 0.00 in0.0 mm 0.00 in0.0 mm 0.00 in0.0 mm
03:35 PM 54.3°F12.4°C 48.6°F9.2°C 81% 4.9 mph SE7.9 kmh SE 5.2 mph8.4 kmh 29.80 in1009.1 mb 0.00 in0.0 mm 0.00 in0.0 mm 0.00 in0.0 mm
03:40 PM 54.1°F12.3°C 48.4°F9.1°C 81% Calm Calm 4.9 mph7.9 kmh 29.80 in1009.1 mb 0.00 in0.0 mm 0.00 in0.0 mm 0.00 in0.0 mm
03:45 PM 54.0°F12.2°C 48.3°F9.1°C 81% 3.5 mph SE5.6 kmh SE 4.9 mph7.9 kmh 29.80 in1009.1 mb 0.00 in0.0 mm 0.00 in0.0 mm 0.00 in0.0 mm
03:50 PM 53.8°F12.1°C 48.1°F8.9°C 81% 7.1 mph SE11.4 kmh SE 7.1 mph11.4 kmh 29.80 in1009.1 mb 0.00 in0.0 mm 0.00 in0.0 mm 0.00 in0.0 mm
03:55 PM 53.6°F12.0°C 47.9°F8.8°C 81% 1.9 mph SE3.1 kmh SE 7.1 mph11.4 kmh 29.80 in1009.1 mb 0.00 in0.0 mm 0.00 in0.0 mm 0.00 in0.0 mm
04:00 PM 53.4°F11.9°C 48.1°F8.9°C 82% 4.4 mph SE7.1 kmh SE 7.1 mph11.4 kmh 29.80 in1009.1 mb 0.00 in0.0 mm 0.00 in0.0 mm 0.00 in0.0 mm
04:05 PM 53.2°F11.8°C 47.9°F8.8°C 82% 1.9 mph SE3.1 kmh SE 4.9 mph7.9 kmh 29.80 in1009.1 mb 0.00 in0.0 mm 0.00 in0.0 mm 0.00 in0.0 mm
04:10 PM 53.1°F11.7°C 47.7°F8.7°C 82% 7.4 mph SE11.9 kmh SE 7.4 mph11.9 kmh 29.80 in1009.1 mb 0.00 in0.0 mm 0.00 in0.0 mm 0.00 in0.0 mm
04:15 PM 53.1°F11.7°C 47.7°F8.7°C 82% 4.6 mph SE7.4 kmh SE 7.4 mph11.9 kmh 29.80 in1009.1 mb 0.00 in0.0 mm 0.00 in0.0 mm 0.00 in0.0 mm
04:20 PM 52.9°F11.6°C 47.9°F8.8°C 83% Calm Calm 4.6 mph7.4 kmh 29.80 in1009.1 mb 0.00 in0.0 mm 0.00 in0.0 mm 0.00 in0.0 mm
04:25 PM 52.7°F11.5°C 47.7°F8.7°C 83% 6.0 mph SE9.7 kmh SE 6.0 mph9.7 kmh 29.80 in1009.1 mb 0.00 in0.0 mm 0.00 in0.0 mm 0.00 in0.0 mm
04:30 PM 52.5°F11.4°C 47.8°F8.8°C 84% 3.3 mph SE5.3 kmh SE 6.5 mph10.5 kmh 29.80 in1009.1 mb 0.00 in0.0 mm 0.00 in0.0 mm 0.00 in0.0 mm
04:35 PM 52.3°F11.3°C 47.6°F8.7°C 84% 4.4 mph SE7.1 kmh SE 6.5 mph10.5 kmh 29.80 in1009.1 mb 0.00 in0.0 mm 0.00 in0.0 mm 0.00 in0.0 mm
04:40 PM 52.2°F11.2°C 47.5°F8.6°C 84% 6.0 mph SE9.7 kmh SE 9.8 mph15.8 kmh 29.80 in1009.1 mb 0.00 in0.0 mm 0.00 in0.0 mm 0.00 in0.0 mm
04:45 PM 52.0°F11.1°C 47.3°F8.5°C 84% 7.1 mph SE11.4 kmh SE 9.8 mph15.8 kmh 29.80 in1009.1 mb 0.00 in0.0 mm 0.00 in0.0 mm 0.00 in0.0 mm
04:50 PM 52.0°F11.1°C 47.3°F8.5°C 84% 1.6 mph SE2.6 kmh SE 7.9 mph12.7 kmh 29.80 in1009.1 mb 0.00 in0.0 mm 0.00 in0.0 mm 0.00 in0.0 mm
04:55 PM 51.8°F11.0°C 47.4°F8.6°C 85% Calm Calm 7.1 mph11.4 kmh 29.80 in1009.1 mb 0.00 in0.0 mm 0.00 in0.0 mm 0.00 in0.0 mm
05:00 PM 51.6°F10.9°C 47.3°F8.5°C 85% 3.5 mph SE5.6 kmh SE 6.5 mph10.5 kmh 29.80 in1009.1 mb 0.00 in0.0 mm 0.00 in0.0 mm 0.00 in0.0 mm
05:05 PM 51.6°F10.9°C 47.3°F8.5°C 85% 1.6 mph SE2.6 kmh SE 6.5 mph10.5 kmh 29.80 in1009.1 mb 0.00 in0.0 mm 0.00 in0.0 mm 0.00 in0.0 mm
05:10 PM 51.4°F10.8°C 47.4°F8.6°C 86% 4.6 mph SE7.4 kmh SE 6.0 mph9.7 kmh 29.80 in1009.1 mb 0.00 in0.0 mm 0.00 in0.0 mm 0.00 in0.0 mm
05:15 PM 51.4°F10.8°C 47.4°F8.6°C 86% 1.6 mph SE2.6 kmh SE 6.8 mph10.9 kmh 29.80 in1009.1 mb 0.00 in0.0 mm 0.00 in0.0 mm 0.00 in0.0 mm
05:20 PM 51.4°F10.8°C 47.4°F8.6°C 86% 4.1 mph SE6.6 kmh SE 6.8 mph10.9 kmh 29.80 in1009.1 mb 0.00 in0.0 mm 0.00 in0.0 mm 0.00 in0.0 mm
05:25 PM 51.3°F10.7°C 47.2°F8.4°C 86% Calm Calm 5.5 mph8.9 kmh 29.80 in1009.1 mb 0.00 in0.0 mm 0.00 in0.0 mm 0.00 in0.0 mm
05:30 PM 51.3°F10.7°C 47.2°F8.4°C 86% Calm Calm 5.5 mph8.9 kmh 29.80 in1009.1 mb 0.00 in0.0 mm 0.00 in0.0 mm 0.00 in0.0 mm
05:35 PM 51.1°F10.6°C 47.3°F8.5°C 87% 2.7 mph SE4.3 kmh SE 5.2 mph8.4 kmh 29.80 in1009.1 mb 0.00 in0.0 mm 0.00 in0.0 mm 0.00 in0.0 mm
05:40 PM 51.1°F10.6°C 47.3°F8.5°C 87% 2.7 mph SE4.3 kmh SE 4.4 mph7.1 kmh 29.80 in1009.1 mb 0.00 in0.0 mm 0.00 in0.0 mm 0.00 in0.0 mm
05:45 PM 50.9°F10.5°C 47.2°F8.4°C 87% 2.5 mph SE4.0 kmh SE 7.1 mph11.4 kmh 29.80 in1009.1 mb 0.00 in0.0 mm 0.00 in0.0 mm 0.00 in0.0 mm
05:50 PM 50.9°F10.5°C 47.2°F8.4°C 87% 2.5 mph SE4.0 kmh SE 7.1 mph11.4 kmh 29.80 in1009.1 mb 0.00 in0.0 mm 0.00 in0.0 mm 0.00 in0.0 mm
05:55 PM 50.9°F10.5°C 47.2°F8.4°C 87% 4.4 mph SE7.1 kmh SE 4.6 mph7.4 kmh 29.80 in1009.1 mb 0.00 in0.0 mm 0.00 in0.0 mm 0.00 in0.0 mm
06:00 PM 50.9°F10.5°C 47.5°F8.6°C 88% 4.1 mph SE6.6 kmh SE 4.6 mph7.4 kmh 29.80 in1009.1 mb 0.00 in0.0 mm 0.00 in0.0 mm 0.00 in0.0 mm
06:05 PM 50.7°F10.4°C 47.3°F8.5°C 88% 1.6 mph SE2.6 kmh SE 4.6 mph7.4 kmh 29.80 in1009.1 mb 0.00 in0.0 mm 0.00 in0.0 mm 0.00 in0.0 mm
06:10 PM 50.7°F10.4°C 47.3°F8.5°C 88% 1.6 mph SE2.6 kmh SE 4.4 mph7.1 kmh 29.80 in1009.1 mb 0.00 in0.0 mm 0.00 in0.0 mm 0.00 in0.0 mm
06:15 PM 50.5°F10.3°C 47.1°F8.4°C 88% 4.6 mph SE7.4 kmh SE 4.6 mph7.4 kmh 29.80 in1009.1 mb 0.00 in0.0 mm 0.00 in0.0 mm 0.00 in0.0 mm
06:20 PM 50.4°F10.2°C 46.9°F8.3°C 88% Calm Calm 4.6 mph7.4 kmh 29.80 in1009.1 mb 0.00 in0.0 mm 0.00 in0.0 mm 0.00 in0.0 mm
06:25 PM 50.4°F10.2°C 46.9°F8.3°C 88% Calm Calm 3.8 mph6.1 kmh 29.80 in1009.1 mb 0.00 in0.0 mm 0.00 in0.0 mm 0.00 in0.0 mm
06:30 PM 50.2°F10.1°C 46.8°F8.2°C 88% Calm Calm 3.8 mph6.1 kmh 29.80 in1009.1 mb 0.00 in0.0 mm 0.00 in0.0 mm 0.00 in0.0 mm
06:35 PM 50.2°F10.1°C 47.1°F8.4°C 89% 2.7 mph E4.3 kmh E 3.5 mph5.6 kmh 29.80 in1009.1 mb 0.00 in0.0 mm 0.00 in0.0 mm 0.00 in0.0 mm
06:40 PM 50.2°F10.1°C 47.1°F8.4°C 89% 3.3 mph ESE5.3 kmh ESE 4.6 mph7.4 kmh 29.80 in1009.1 mb 0.00 in0.0 mm 0.00 in0.0 mm 0.00 in0.0 mm
06:45 PM 50.0°F10.0°C 46.9°F8.3°C 89% 1.9 mph ESE3.1 kmh ESE 4.6 mph7.4 kmh 29.80 in1009.1 mb 0.00 in0.0 mm 0.00 in0.0 mm 0.00 in0.0 mm
06:50 PM 50.0°F10.0°C 46.9°F8.3°C 89% 3.5 mph SE5.6 kmh SE 4.9 mph7.9 kmh 29.80 in1009.1 mb 0.00 in0.0 mm 0.00 in0.0 mm 0.00 in0.0 mm
06:55 PM 50.0°F10.0°C 46.9°F8.3°C 89% 4.9 mph SE7.9 kmh SE 4.9 mph7.9 kmh 29.80 in1009.1 mb 0.00 in0.0 mm 0.00 in0.0 mm 0.00 in0.0 mm
07:00 PM 49.8°F9.9°C 47.0°F8.3°C 90% 4.6 mph SE7.4 kmh SE 4.9 mph7.9 kmh 29.77 in1008.1 mb 0.00 in0.0 mm 0.00 in0.0 mm 0.00 in0.0 mm
07:05 PM 49.8°F9.9°C 47.0°F8.3°C 90% 1.4 mph ESE2.3 kmh ESE 4.9 mph7.9 kmh 29.77 in1008.1 mb 0.00 in0.0 mm 0.00 in0.0 mm 0.00 in0.0 mm
07:10 PM 49.6°F9.8°C 46.8°F8.2°C 90% 1.1 mph E1.8 kmh E 7.1 mph11.4 kmh 29.77 in1008.1 mb 0.00 in0.0 mm 0.00 in0.0 mm 0.00 in0.0 mm
07:15 PM 49.5°F9.7°C 46.6°F8.1°C 90% Calm Calm 7.1 mph11.4 kmh 29.77 in1008.1 mb 0.00 in0.0 mm 0.00 in0.0 mm 0.00 in0.0 mm
07:20 PM 49.5°F9.7°C 46.6°F8.1°C 90% 2.7 mph ESE4.3 kmh ESE 3.8 mph6.1 kmh 29.77 in1008.1 mb 0.00 in0.0 mm 0.00 in0.0 mm 0.00 in0.0 mm
07:25 PM 49.3°F9.6°C 46.8°F8.2°C 91% Calm Calm 3.8 mph6.1 kmh 29.77 in1008.1 mb 0.00 in0.0 mm 0.00 in0.0 mm 0.00 in0.0 mm
07:30 PM 49.1°F9.5°C 46.6°F8.1°C 91% 3.8 mph ESE6.1 kmh ESE 4.1 mph6.6 kmh 29.77 in1008.1 mb 0.00 in0.0 mm 0.00 in0.0 mm 0.00 in0.0 mm
07:35 PM 48.9°F9.4°C 46.4°F8.0°C 91% 3.3 mph SE5.3 kmh SE 4.1 mph6.6 kmh 29.77 in1008.1 mb 0.00 in0.0 mm 0.00 in0.0 mm 0.00 in0.0 mm
07:40 PM 48.9°F9.4°C 46.4°F8.0°C 91% 1.9 mph SE3.1 kmh SE 4.1 mph6.6 kmh 29.77 in1008.1 mb 0.00 in0.0 mm 0.00 in0.0 mm 0.00 in0.0 mm
07:45 PM 48.7°F9.3°C 46.2°F7.9°C 91% 1.6 mph SSE2.6 kmh SSE 4.4 mph7.1 kmh 29.80 in1009.1 mb 0.00 in0.0 mm 0.00 in0.0 mm 0.00 in0.0 mm
07:50 PM 48.7°F9.3°C 46.2°F7.9°C 91% 3.0 mph SE4.8 kmh SE 4.4 mph7.1 kmh 29.80 in1009.1 mb 0.00 in0.0 mm 0.00 in0.0 mm 0.00 in0.0 mm
07:55 PM 48.7°F9.3°C 46.2°F7.9°C 91% 3.8 mph SE6.1 kmh SE 6.0 mph9.7 kmh 29.80 in1009.1 mb 0.00 in0.0 mm 0.00 in0.0 mm 0.00 in0.0 mm
08:00 PM 48.7°F9.3°C 46.5°F8.1°C 92% 2.5 mph SE4.0 kmh SE 6.0 mph9.7 kmh 29.80 in1009.1 mb 0.00 in0.0 mm 0.00 in0.0 mm 0.00 in0.0 mm
08:05 PM 48.7°F9.3°C 46.5°F8.1°C 92% Calm Calm 4.4 mph7.1 kmh 29.80 in1009.1 mb 0.00 in0.0 mm 0.00 in0.0 mm 0.00 in0.0 mm
08:10 PM 48.9°F9.4°C 46.7°F8.2°C 92% 1.1 mph ESE1.8 kmh ESE 4.4 mph7.1 kmh 29.80 in1009.1 mb 0.00 in0.0 mm 0.00 in0.0 mm 0.00 in0.0 mm
08:15 PM 48.9°F9.4°C 46.7°F8.2°C 92% Calm Calm 2.7 mph4.3 kmh 29.80 in1009.1 mb 0.00 in0.0 mm 0.00 in0.0 mm 0.00 in0.0 mm
08:20 PM 49.1°F9.5°C 46.9°F8.3°C 92% Calm Calm 2.7 mph4.3 kmh 29.80 in1009.1 mb 0.00 in0.0 mm 0.00 in0.0 mm 0.00 in0.0 mm
08:25 PM 49.1°F9.5°C 46.9°F8.3°C 92% Calm Calm 3.0 mph4.8 kmh 29.80 in1009.1 mb 0.00 in0.0 mm 0.00 in0.0 mm 0.00 in0.0 mm
08:30 PM 49.3°F9.6°C 47.1°F8.4°C 92% Calm Calm 3.0 mph4.8 kmh 29.80 in1009.1 mb 0.00 in0.0 mm 0.00 in0.0 mm 0.00 in0.0 mm
08:35 PM 49.3°F9.6°C 47.1°F8.4°C 92% Calm Calm 2.5 mph4.0 kmh 29.80 in1009.1 mb 0.00 in0.0 mm 0.00 in0.0 mm 0.00 in0.0 mm
08:40 PM 49.5°F9.7°C 46.9°F8.3°C 91% Calm Calm 1.1 mph1.8 kmh 29.80 in1009.1 mb 0.00 in0.0 mm 0.00 in0.0 mm 0.00 in0.0 mm
08:45 PM 49.5°F9.7°C 46.9°F8.3°C 91% Calm Calm 1.1 mph1.8 kmh 29.80 in1009.1 mb 0.00 in0.0 mm 0.00 in0.0 mm 0.00 in0.0 mm
08:50 PM 49.5°F9.7°C 46.9°F8.3°C 91% Calm Calm -- 29.80 in1009.1 mb 0.00 in0.0 mm 0.00 in0.0 mm 0.00 in0.0 mm
08:55 PM 49.5°F9.7°C 46.9°F8.3°C 91% Calm Calm -- 29.80 in1009.1 mb 0.00 in0.0 mm 0.00 in0.0 mm 0.00 in0.0 mm
09:00 PM 49.5°F9.7°C 46.9°F8.3°C 91% 2.7 mph E4.3 kmh E 2.7 mph4.3 kmh 29.80 in1009.1 mb 0.00 in0.0 mm 0.00 in0.0 mm 0.00 in0.0 mm
09:05 PM 49.5°F9.7°C 46.9°F8.3°C 91% 1.9 mph E3.1 kmh E 2.7 mph4.3 kmh 29.80 in1009.1 mb 0.00 in0.0 mm 0.00 in0.0 mm 0.00 in0.0 mm
09:10 PM 49.5°F9.7°C 46.9°F8.3°C 91% Calm Calm 2.7 mph4.3 kmh 29.80 in1009.1 mb 0.00 in0.0 mm 0.00 in0.0 mm 0.00 in0.0 mm
09:15 PM 49.6°F9.8°C 47.1°F8.4°C 91% Calm Calm 1.9 mph3.1 kmh 29.80 in1009.1 mb 0.00 in0.0 mm 0.00 in0.0 mm 0.00 in0.0 mm
09:20 PM 49.6°F9.8°C 47.1°F8.4°C 91% Calm Calm 1.9 mph3.1 kmh 29.80 in1009.1 mb 0.00 in0.0 mm 0.00 in0.0 mm 0.00 in0.0 mm
09:25 PM 49.6°F9.8°C 47.1°F8.4°C 91% Calm Calm 3.8 mph6.1 kmh 29.80 in1009.1 mb 0.00 in0.0 mm 0.00 in0.0 mm 0.00 in0.0 mm
09:30 PM 49.6°F9.8°C 47.1°F8.4°C 91% Calm Calm 3.8 mph6.1 kmh 29.80 in1009.1 mb 0.00 in0.0 mm 0.00 in0.0 mm 0.00 in0.0 mm
09:35 PM 49.6°F9.8°C 47.1°F8.4°C 91% 3.8 mph ENE6.1 kmh ENE 3.8 mph6.1 kmh 29.80 in1009.1 mb 0.00 in0.0 mm 0.00 in0.0 mm 0.00 in0.0 mm
09:40 PM 49.6°F9.8°C 47.1°F8.4°C 91% Calm Calm 3.8 mph6.1 kmh 29.80 in1009.1 mb 0.00 in0.0 mm 0.00 in0.0 mm 0.00 in0.0 mm
09:45 PM 49.6°F9.8°C 47.1°F8.4°C 91% 4.1 mph ENE6.6 kmh ENE 4.1 mph6.6 kmh 29.77 in1008.1 mb 0.00 in0.0 mm 0.00 in0.0 mm 0.00 in0.0 mm
09:50 PM 49.6°F9.8°C 47.1°F8.4°C 91% Calm Calm 4.1 mph6.6 kmh 29.77 in1008.1 mb 0.00 in0.0 mm 0.00 in0.0 mm 0.00 in0.0 mm
09:55 PM 49.5°F9.7°C 46.9°F8.3°C 91% 2.7 mph E4.3 kmh E 4.1 mph6.6 kmh 29.77 in1008.1 mb 0.00 in0.0 mm 0.00 in0.0 mm 0.00 in0.0 mm
10:00 PM 49.5°F9.7°C 46.9°F8.3°C 91% 3.3 mph E5.3 kmh E 4.6 mph7.4 kmh 29.77 in1008.1 mb 0.00 in0.0 mm 0.00 in0.0 mm 0.00 in0.0 mm
10:05 PM 49.5°F9.7°C 46.9°F8.3°C 91% 3.3 mph ENE5.3 kmh ENE 4.6 mph7.4 kmh 29.77 in1008.1 mb 0.00 in0.0 mm 0.00 in0.0 mm 0.00 in0.0 mm
10:10 PM 49.3°F9.6°C 46.8°F8.2°C 91% Calm Calm 3.5 mph5.6 kmh 29.77 in1008.1 mb 0.00 in0.0 mm 0.00 in0.0 mm 0.00 in0.0 mm
10:15 PM 49.1°F9.5°C 46.6°F8.1°C 91% Calm Calm 3.3 mph5.3 kmh 29.77 in1008.1 mb 0.00 in0.0 mm 0.00 in0.0 mm 0.00 in0.0 mm
10:20 PM 48.9°F9.4°C 46.4°F8.0°C 91% 1.4 mph E2.3 kmh E 2.7 mph4.3 kmh 29.77 in1008.1 mb 0.00 in0.0 mm 0.00 in0.0 mm 0.00 in0.0 mm
10:25 PM 48.7°F9.3°C 46.5°F8.1°C 92% 1.4 mph E2.3 kmh E 2.5 mph4.0 kmh 29.77 in1008.1 mb 0.00 in0.0 mm 0.00 in0.0 mm 0.00 in0.0 mm
10:30 PM 48.7°F9.3°C 46.5°F8.1°C 92% Calm Calm 3.8 mph6.1 kmh 29.77 in1008.1 mb 0.00 in0.0 mm 0.00 in0.0 mm 0.00 in0.0 mm
10:35 PM 48.6°F9.2°C 46.3°F7.9°C 92% Calm Calm 3.8 mph6.1 kmh 29.77 in1008.1 mb 0.00 in0.0 mm 0.00 in0.0 mm 0.00 in0.0 mm
10:40 PM 48.4°F9.1°C 46.2°F7.9°C 92% Calm Calm 3.8 mph6.1 kmh 29.77 in1008.1 mb 0.00 in0.0 mm 0.00 in0.0 mm 0.00 in0.0 mm
10:45 PM 48.2°F9.0°C 46.0°F7.8°C 92% Calm Calm 3.8 mph6.1 kmh 29.77 in1008.1 mb 0.00 in0.0 mm 0.00 in0.0 mm 0.00 in0.0 mm
10:50 PM 48.2°F9.0°C 46.0°F7.8°C 92% 4.4 mph E7.1 kmh E 4.4 mph7.1 kmh 29.77 in1008.1 mb 0.00 in0.0 mm 0.00 in0.0 mm 0.00 in0.0 mm
10:55 PM 48.0°F8.9°C 46.1°F7.8°C 93% Calm Calm 4.4 mph7.1 kmh 29.77 in1008.1 mb 0.00 in0.0 mm 0.00 in0.0 mm 0.00 in0.0 mm
11:00 PM 48.0°F8.9°C 46.1°F7.8°C 93% Calm Calm 1.9 mph3.1 kmh 29.77 in1008.1 mb 0.00 in0.0 mm 0.00 in0.0 mm 0.00 in0.0 mm
11:05 PM 47.8°F8.8°C 45.9°F7.7°C 93% 3.8 mph E6.1 kmh E 3.8 mph6.1 kmh 29.77 in1008.1 mb 0.00 in0.0 mm 0.00 in0.0 mm 0.00 in0.0 mm
11:10 PM 47.7°F8.7°C 45.7°F7.6°C 93% 2.5 mph ENE4.0 kmh ENE 3.8 mph6.1 kmh 29.77 in1008.1 mb 0.00 in0.0 mm 0.00 in0.0 mm 0.00 in0.0 mm
11:15 PM 47.7°F8.7°C 45.7°F7.6°C 93% Calm Calm 3.5 mph5.6 kmh 29.77 in1008.1 mb 0.00 in0.0 mm 0.00 in0.0 mm 0.00 in0.0 mm
11:20 PM 47.5°F8.6°C 45.6°F7.6°C 93% 1.9 mph E3.1 kmh E 3.5 mph5.6 kmh 29.77 in1008.1 mb 0.00 in0.0 mm 0.00 in0.0 mm 0.00 in0.0 mm
11:25 PM 47.3°F8.5°C 45.4°F7.4°C 93% Calm Calm 1.9 mph3.1 kmh 29.77 in1008.1 mb 0.00 in0.0 mm 0.00 in0.0 mm 0.00 in0.0 mm
11:30 PM 47.3°F8.5°C 45.4°F7.4°C 93% Calm Calm 1.6 mph2.6 kmh 29.74 in1007.1 mb 0.00 in0.0 mm 0.00 in0.0 mm 0.00 in0.0 mm
11:35 PM 47.1°F8.4°C 45.2°F7.3°C 93% Calm Calm 3.3 mph5.3 kmh 29.74 in1007.1 mb 0.00 in0.0 mm 0.00 in0.0 mm 0.00 in0.0 mm
11:40 PM 47.1°F8.4°C 45.2°F7.3°C 93% 4.9 mph E7.9 kmh E 4.9 mph7.9 kmh 29.74 in1007.1 mb 0.00 in0.0 mm 0.00 in0.0 mm 0.00 in0.0 mm
11:45 PM 47.1°F8.4°C 45.2°F7.3°C 93% Calm Calm 4.9 mph7.9 kmh 29.74 in1007.1 mb 0.00 in0.0 mm 0.00 in0.0 mm 0.00 in0.0 mm
11:50 PM 46.9°F8.3°C 45.3°F7.4°C 94% Calm Calm 4.9 mph7.9 kmh 29.74 in1007.1 mb 0.00 in0.0 mm 0.00 in0.0 mm 0.00 in0.0 mm
11:55 PM 46.9°F8.3°C 45.3°F7.4°C 94% 1.6 mph ESE2.6 kmh ESE 4.4 mph7.1 kmh 29.74 in1007.1 mb 0.00 in0.0 mm 0.00 in0.0 mm 0.00 in0.0 mm